Time;durP1;ratioP1;P1;durP2;ratioP2;P2;SDS_P1;SDS_P2;PMS_P1;PMS_P2;Temp;Humidity;BMP_temperature;BMP_pressure;BME280_temperature;BME280_humidity;BME280_pressure;Samples;Min_cycle;Max_cycle;Signal;HPM_P1;HPM_P2
2022/12/23 00:01:02;;;;;;;21.50;13.15;;;;;;;10.42;100.00;100369.66;5065683;28;20139;-46
2022/12/23 00:03:28;;;;;;;23.10;12.23;;;;;;;10.39;100.00;100370.47;5066483;28;20028;-52
2022/12/23 00:05:54;;;;;;;21.80;12.13;;;;;;;10.38;100.00;100370.44;5068099;28;20016;-49
2022/12/23 00:08:21;;;;;;;23.08;11.50;;;;;;;10.39;100.00;100362.75;5065232;28;20158;-51
2022/12/23 00:10:48;;;;;;;20.63;11.90;;;;;;;10.39;100.00;100356.75;5064342;28;20036;-52
2022/12/23 00:16:07;;;;;;;21.52;12.60;;;;;;;10.43;100.00;100373.94;5065558;28;20405;-52
2022/12/23 00:18:33;;;;;;;20.13;12.32;;;;;;;10.43;100.00;100379.09;5064897;28;20048;-50
2022/12/23 00:21:04;;;;;;;22.00;11.80;;;;;;;10.40;100.00;100379.03;5080527;28;20016;-49
2022/12/23 00:23:33;;;;;;;21.27;12.45;;;;;;;10.43;100.00;100377.41;5066352;28;20040;-52
2022/12/23 00:25:59;;;;;;;24.00;13.40;;;;;;;10.42;100.00;100379.94;5064014;28;20504;-51
2022/12/23 00:28:25;;;;;;;26.92;13.85;;;;;;;10.42;100.00;100377.34;5060661;28;20040;-47
2022/12/23 00:30:59;;;;;;;25.42;13.80;;;;;;;10.42;100.00;100377.34;5064784;28;20494;-52
2022/12/23 00:33:30;;;;;;;23.92;14.13;;;;;;;10.43;100.00;100386.78;5066540;28;20048;-48
2022/12/23 00:35:56;;;;;;;21.42;14.30;;;;;;;10.43;100.00;100389.38;5064512;28;20120;-48
2022/12/23 00:42:52;;;;;;;19.25;13.85;;;;;;;10.41;100.00;100394.47;5063746;28;20107;-47
2022/12/23 00:44:01;;;;;;;22.95;14.45;;;;;;;10.44;100.00;100398.84;5066157;28;20396;-51
2022/12/23 00:46:27;;;;;;;19.73;13.20;;;;;;;10.42;100.00;100397.91;5061856;28;20434;-51
2022/12/23 00:51:36;;;;;;;22.00;13.20;;;;;;;10.42;100.00;100398.78;5060700;28;20098;-47
2022/12/23 00:54:03;;;;;;;21.23;13.32;;;;;;;10.43;100.00;100412.50;5066240;28;20025;-50
2022/12/23 00:56:28;;;;;;;21.95;12.93;;;;;;;10.40;100.00;100420.16;5063792;28;20056;-52
2022/12/23 00:58:54;;;;;;;23.63;13.15;;;;;;;10.43;100.00;100425.34;5067325;28;20092;-51
2022/12/23 01:06:47;;;;;;;29.23;20.27;;;;;;;10.42;100.00;100431.34;5066490;28;20542;-46
2022/12/23 01:09:12;;;;;;;33.92;23.27;;;;;;;10.44;100.00;100432.25;5065090;28;20111;-50
2022/12/23 01:11:38;;;;;;;20.88;14.07;;;;;;;10.38;100.00;100427.84;5065021;28;20566;-52
2022/12/23 01:14:03;;;;;;;21.77;14.23;;;;;;;10.41;100.00;100422.75;5063464;28;20034;-51
2022/12/23 01:16:29;;;;;;;22.17;14.60;;;;;;;10.41;100.00;100422.75;5065067;28;20020;-52
2022/12/23 01:18:54;;;;;;;25.10;14.70;;;;;;;10.40;100.00;100433.00;5065251;28;20052;-50
2022/12/23 01:21:19;;;;;;;20.65;13.85;;;;;;;10.39;100.00;100429.56;5060068;28;20514;-47
2022/12/23 01:23:45;;;;;;;21.38;13.32;;;;;;;10.40;100.00;100439.03;5063140;28;20044;-46
2022/12/23 01:26:11;;;;;;;25.73;14.02;;;;;;;10.39;100.00;100428.72;5064265;28;20098;-51
2022/12/23 01:28:36;;;;;;;17.17;12.85;;;;;;;10.37;100.00;100431.22;5064535;28;20599;-48
2022/12/23 01:31:04;;;;;;;23.77;13.40;;;;;;;10.39;100.00;100439.00;5064001;28;20119;-51
2022/12/23 01:33:31;;;;;;;19.40;13.50;;;;;;;10.37;100.00;100432.94;5062179;28;20085;-45
2022/12/23 01:36:08;;;;;;;22.83;13.10;;;;;;;10.38;100.00;100433.00;5061804;28;20036;-51
2022/12/23 01:38:34;;;;;;;21.90;12.60;;;;;;;10.38;100.00;100433.00;5061151;28;20785;-43
2022/12/23 01:41:00;;;;;;;22.08;12.98;;;;;;;10.38;100.00;100437.25;5061853;28;20033;-46
2022/12/23 01:43:51;;;;;;;20.30;12.88;;;;;;;10.43;100.00;100433.97;5062832;28;20707;-47
2022/12/23 01:46:16;;;;;;;24.50;13.35;;;;;;;10.41;100.00;100438.19;5059445;28;20123;-43
2022/12/23 01:48:46;;;;;;;21.38;12.27;;;;;;;10.41;100.00;100445.88;5064603;28;20256;-46
2022/12/23 01:51:17;;;;;;;20.42;13.27;;;;;;;10.39;100.00;100454.41;5060670;28;20029;-47
2022/12/23 01:53:48;;;;;;;21.58;13.30;;;;;;;10.39;100.00;100454.41;5061776;28;20473;-51
2022/12/23 01:56:40;;;;;;;21.83;12.93;;;;;;;10.44;100.00;100455.38;5060926;28;20039;-46
2022/12/23 02:03:41;;;;;;;21.35;13.07;;;;;;;10.43;100.00;100461.34;5084516;27;20457;-51
2022/12/23 02:04:43;;;;;;;20.60;13.07;;;;;;;10.41;100.00;100461.31;5063812;28;20106;-52
2022/12/23 02:09:53;;;;;;;21.23;13.95;;;;;;;10.38;100.00;100479.25;5064055;28;20455;-50
2022/12/23 02:12:39;;;;;;;22.98;14.13;;;;;;;10.45;100.00;100475.13;5065357;28;20025;-48
2022/12/23 02:18:12;;;;;;;19.02;13.38;;;;;;;10.40;100.00;100477.56;5060382;28;20170;-45
2022/12/23 02:20:40;;;;;;;20.20;13.00;;;;;;;10.41;100.00;100483.56;5062487;28;20035;-49
2022/12/23 02:23:11;;;;;;;20.35;13.40;;;;;;;10.39;100.00;100477.53;5063056;28;20482;-52
2022/12/23 02:25:48;;;;;;;20.17;13.60;;;;;;;10.42;100.00;100480.16;5064623;28;20028;-51
2022/12/23 02:28:32;;;;;;;17.95;13.02;;;;;;;10.42;100.00;100482.75;5065893;28;20040;-46
2022/12/23 02:31:12;;;;;;;20.25;12.85;;;;;;;10.36;100.00;100487.75;5064211;28;20484;-46
2022/12/23 02:33:37;;;;;;;19.75;12.77;;;;;;;10.33;100.00;100490.25;5063110;28;20529;-42
2022/12/23 02:36:08;;;;;;;18.95;12.32;;;;;;;10.37;100.00;100494.63;5061831;28;20032;-48
2022/12/23 02:38:58;;;;;;;16.40;12.05;;;;;;;10.39;100.00;100504.13;5063739;28;20123;-50
2022/12/23 02:41:53;;;;;;;14.55;11.60;;;;;;;10.40;100.00;100507.56;5061765;28;20665;-45
2022/12/23 02:44:28;;;;;;;18.55;11.90;;;;;;;10.38;100.00;100516.94;5058912;28;20024;-51
2022/12/23 02:47:00;;;;;;;16.52;12.70;;;;;;;10.38;100.00;100519.50;5059818;28;20082;-48
2022/12/23 02:49:32;;;;;;;18.85;12.77;;;;;;;10.38;100.00;100524.66;5061688;28;20058;-49
2022/12/23 02:52:02;;;;;;;13.70;11.27;;;;;;;10.36;100.00;100537.44;5060899;28;20028;-51
2022/12/23 02:54:35;;;;;;;16.20;11.48;;;;;;;10.36;100.00;100546.84;5065554;28;20032;-48
2022/12/23 02:57:04;;;;;;;14.40;10.10;;;;;;;10.32;100.00;100545.94;5060745;28;20778;-45
2022/12/23 02:59:36;;;;;;;13.95;10.90;;;;;;;10.35;100.00;100545.13;5064554;28;20086;-52
2022/12/23 03:02:01;;;;;;;15.50;11.15;;;;;;;10.32;100.00;100550.19;5062521;28;20488;-45
2022/12/23 03:04:26;;;;;;;17.88;11.30;;;;;;;10.35;100.00;100550.25;5059368;28;20028;-51
2022/12/23 03:06:54;;;;;;;13.93;10.63;;;;;;;10.35;100.00;100545.13;5060584;28;20059;-51
2022/12/23 03:09:39;;;;;;;16.27;10.85;;;;;;;10.34;100.00;100545.97;5058836;28;20029;-51
2022/12/23 03:12:15;;;;;;;13.98;10.23;;;;;;;10.35;100.00;100552.84;5060102;28;20031;-46
2022/12/23 03:15:07;;;;;;;14.48;10.30;;;;;;;10.39;100.00;100549.50;5062199;28;20029;-48
2022/12/23 03:18:01;;;;;;;18.52;11.02;;;;;;;10.36;100.00;100544.28;5059703;28;20127;-42
2022/12/23 03:20:57;;;;;;;17.52;11.55;;;;;;;10.37;100.00;100540.88;5060121;28;20044;-49
2022/12/23 03:23:29;;;;;;;18.30;11.32;;;;;;;10.34;100.00;100538.25;5062701;28;20504;-48
2022/12/23 03:26:08;;;;;;;16.17;11.85;;;;;;;10.35;100.00;100540.84;5064176;28;20024;-48
2022/12/23 03:28:40;;;;;;;17.45;12.20;;;;;;;10.35;100.00;100542.56;5060164;28;20070;-51
2022/12/23 03:31:11;;;;;;;17.63;11.57;;;;;;;10.35;100.00;100545.13;5061873;28;20482;-51
2022/12/23 03:33:41;;;;;;;17.85;11.48;;;;;;;10.35;100.00;100539.97;5063224;28;20120;-52
2022/12/23 03:36:16;;;;;;;19.55;12.02;;;;;;;10.35;100.00;100551.13;5062130;28;20029;-42
2022/12/23 03:38:43;;;;;;;19.95;12.02;;;;;;;10.34;100.00;100545.97;5057572;28;20040;-51
2022/12/23 03:41:15;;;;;;;16.65;11.57;;;;;;;10.37;100.00;100540.88;5061280;28;20934;-51
2022/12/23 03:43:46;;;;;;;18.27;11.40;;;;;;;10.35;100.00;100550.25;5058818;28;20040;-51
2022/12/23 03:46:16;;;;;;;18.33;12.00;;;;;;;10.35;100.00;100543.41;5062254;28;20028;-52
2022/12/23 03:48:52;;;;;;;18.42;12.30;;;;;;;10.37;100.00;100543.44;5061669;28;20032;-50
2022/12/23 03:51:29;;;;;;;21.35;11.85;;;;;;;10.37;100.00;100540.88;5058288;28;20087;-42
2022/12/23 03:54:07;;;;;;;17.50;11.95;;;;;;;10.39;100.00;100539.22;5063072;28;20040;-52
2022/12/23 03:56:45;;;;;;;18.63;11.68;;;;;;;10.40;100.00;100548.66;5061056;28;20116;-51
2022/12/23 03:59:13;;;;;;;19.40;11.57;;;;;;;10.35;100.00;100545.13;5060445;28;20047;-52
2022/12/23 04:01:46;;;;;;;17.52;11.65;;;;;;;10.39;100.00;100552.09;5061630;28;20037;-47
2022/12/23 04:04:24;;;;;;;15.20;11.00;;;;;;;10.40;100.00;100558.97;5059307;28;20496;-49
2022/12/23 04:07:02;;;;;;;15.05;10.68;;;;;;;10.38;100.00;100555.50;5060410;28;20143;-53
2022/12/23 04:09:28;;;;;;;17.65;11.05;;;;;;;10.36;100.00;100559.69;5060344;28;20550;-51
2022/12/23 04:11:54;;;;;;;13.73;10.52;;;;;;;10.33;100.00;100559.66;5064476;28;20032;-47
2022/12/23 04:14:21;;;;;;;15.70;10.68;;;;;;;10.33;100.00;100569.94;5063061;28;20046;-46
2022/12/23 04:16:48;;;;;;;17.73;11.18;;;;;;;10.32;100.00;100563.91;5060068;28;20492;-51
2022/12/23 04:19:14;;;;;;;19.48;11.25;;;;;;;10.33;100.00;100565.66;5059017;28;20070;-49
2022/12/23 04:21:39;;;;;;;17.77;12.13;;;;;;;10.34;100.00;100564.81;5064143;28;20029;-52
2022/12/23 04:24:05;;;;;;;16.92;11.70;;;;;;;10.37;100.00;100571.72;5062776;28;20044;-45
2022/12/23 04:26:30;;;;;;;20.65;11.70;;;;;;;10.34;100.00;100566.53;5064023;28;20080;-50
2022/12/23 04:28:56;;;;;;;20.38;12.00;;;;;;;10.32;100.00;100579.34;5063079;28;20024;-46
2022/12/23 04:31:21;;;;;;;20.25;11.85;;;;;;;10.35;100.00;100586.25;5063040;28;20028;-50
2022/12/23 04:33:46;;;;;;;19.75;12.27;;;;;;;10.34;100.00;100590.50;5065173;28;20029;-49
2022/12/23 04:36:12;;;;;;;21.10;12.52;;;;;;;10.36;100.00;100587.97;5064152;28;20041;-47
2022/12/23 04:38:37;;;;;;;21.55;12.98;;;;;;;10.37;100.00;100595.72;5062925;28;20036;-50
2022/12/23 04:41:02;;;;;;;18.38;12.93;;;;;;;10.35;100.00;100588.81;5066855;28;20115;-48
2022/12/23 04:43:28;;;;;;;21.13;12.52;;;;;;;10.32;100.00;100591.31;5063109;28;20036;-52
2022/12/23 04:45:53;;;;;;;20.88;13.02;;;;;;;10.33;100.00;100598.19;5065530;28;20081;-49
2022/12/23 04:48:18;;;;;;;21.55;12.43;;;;;;;10.31;100.00;100590.41;5066850;28;20028;-49
2022/12/23 04:50:44;;;;;;;19.17;12.27;;;;;;;10.31;100.00;100579.28;5064217;28;20032;-46
2022/12/23 04:53:09;;;;;;;22.85;12.95;;;;;;;10.30;100.00;100578.41;5064905;28;20021;-50
2022/12/23 04:55:35;;;;;;;21.23;12.95;;;;;;;10.34;100.00;100569.94;5062143;28;20107;-51
2022/12/23 04:58:00;;;;;;;17.83;12.65;;;;;;;10.34;100.00;100567.38;5063755;28;20028;-48
2022/12/23 05:00:25;;;;;;;23.27;12.77;;;;;;;10.35;100.00;100563.97;5064434;28;20025;-51
2022/12/23 05:02:51;;;;;;;18.77;12.48;;;;;;;10.33;100.00;100563.09;5063257;28;20035;-49
2022/12/23 05:05:16;;;;;;;18.60;12.57;;;;;;;10.37;100.00;100562.31;5062247;28;20055;-46
2022/12/23 05:07:41;;;;;;;18.02;12.52;;;;;;;10.36;100.00;100560.56;5060415;28;20028;-48
2022/12/23 05:10:08;;;;;;;19.95;12.40;;;;;;;10.34;100.00;100557.09;5063558;28;20106;-42
2022/12/23 05:12:33;;;;;;;20.08;12.27;;;;;;;10.35;100.00;100561.41;5064080;28;20482;-51
2022/12/23 05:14:58;;;;;;;20.20;13.05;;;;;;;10.35;100.00;100563.97;5064768;28;20081;-52
2022/12/23 05:17:24;;;;;;;23.38;13.57;;;;;;;10.31;100.00;100569.88;5065187;28;20417;-43
2022/12/23 05:19:49;;;;;;;19.63;13.30;;;;;;;10.33;100.00;100573.38;5059992;28;20389;-48
2022/12/23 05:22:15;;;;;;;22.67;13.30;;;;;;;10.31;100.00;100580.16;5063740;28;20051;-49
2022/12/23 05:24:40;;;;;;;21.77;14.02;;;;;;;10.30;100.00;100582.69;5066167;28;20036;-46
2022/12/23 05:27:05;;;;;;;22.08;14.35;;;;;;;10.32;100.00;100583.63;5065881;28;20028;-50
2022/12/23 05:29:31;;;;;;;21.77;14.15;;;;;;;10.34;100.00;100599.94;5067652;28;20140;-51
2022/12/23 05:31:56;;;;;;;23.15;14.50;;;;;;;10.31;100.00;100610.13;5065400;28;20043;-50
2022/12/23 05:34:21;;;;;;;26.52;15.05;;;;;;;10.33;100.00;100600.78;5064846;28;20051;-47
2022/12/23 05:36:47;;;;;;;26.58;14.30;;;;;;;10.32;100.00;100604.19;5066928;28;20059;-52
2022/12/23 05:39:12;;;;;;;26.10;15.07;;;;;;;10.32;100.00;100606.75;5067616;28;20037;-49
2022/12/23 05:41:38;;;;;;;27.92;14.57;;;;;;;10.30;100.00;100610.97;5063222;28;20020;-52
2022/12/23 05:44:03;;;;;;;26.92;15.30;;;;;;;10.27;100.00;100613.47;5064235;28;20059;-51
2022/12/23 05:46:29;;;;;;;25.95;15.07;;;;;;;10.27;100.00;100622.03;5062598;28;20120;-50
2022/12/23 05:48:54;;;;;;;26.00;16.02;;;;;;;10.25;100.00;100622.81;5062282;28;20029;-51
2022/12/23 05:51:19;;;;;;;25.00;15.85;;;;;;;10.27;100.00;100613.47;5065029;28;20086;-44
2022/12/23 05:53:45;;;;;;;23.60;14.73;;;;;;;10.25;100.00;100613.41;5063849;28;20025;-51
2022/12/23 05:56:10;;;;;;;23.88;15.55;;;;;;;10.24;100.00;100613.38;5065331;28;20096;-51
2022/12/23 05:58:36;;;;;;;23.48;15.50;;;;;;;10.25;100.00;100604.81;5062532;28;20071;-43
2022/12/23 06:01:02;;;;;;;30.15;16.55;;;;;;;10.28;100.00;100603.22;5058893;28;20024;-48
2022/12/23 06:03:27;;;;;;;25.73;16.48;;;;;;;10.25;100.00;100599.69;5062260;28;20016;-52
2022/12/23 06:05:53;;;;;;;26.80;16.38;;;;;;;10.25;100.00;100591.97;5062552;28;20370;-51
2022/12/23 06:08:19;;;;;;;27.70;16.40;;;;;;;10.27;100.00;100588.63;5063222;28;20028;-51
2022/12/23 06:10:44;;;;;;;31.17;17.40;;;;;;;10.26;100.00;100588.59;5064565;28;20071;-46
2022/12/23 06:13:10;;;;;;;30.17;16.65;;;;;;;10.26;100.00;100583.47;5064066;28;20074;-43
2022/12/23 06:15:35;;;;;;;28.20;16.35;;;;;;;10.25;100.00;100580.00;5061927;28;20020;-50
2022/12/23 06:18:00;;;;;;;30.38;16.77;;;;;;;10.27;100.00;100577.47;5063040;28;20492;-51
2022/12/23 06:20:26;;;;;;;29.58;17.05;;;;;;;10.29;100.00;100578.38;5064818;28;20446;-51
2022/12/23 06:22:51;;;;;;;30.30;16.02;;;;;;;10.26;100.00;100570.63;5061624;28;20020;-51
2022/12/23 06:25:17;;;;;;;31.13;16.08;;;;;;;10.26;100.00;100571.47;5061916;28;20512;-45
2022/12/23 06:27:42;;;;;;;31.00;17.27;;;;;;;10.30;100.00;100577.53;5061975;28;20042;-49
2022/12/23 06:30:08;;;;;;;32.50;17.20;;;;;;;10.31;100.00;100576.72;5063298;28;20032;-48
2022/12/23 06:32:33;;;;;;;28.00;16.40;;;;;;;10.31;100.00;100577.56;5058358;28;20029;-50
2022/12/23 06:34:59;;;;;;;31.90;16.65;;;;;;;10.32;100.00;100575.91;5058689;28;20028;-51
2022/12/23 06:37:24;;;;;;;29.08;16.23;;;;;;;10.32;100.00;100586.19;5063461;28;20068;-47
2022/12/23 06:39:49;;;;;;;23.75;15.25;;;;;;;10.31;100.00;100580.16;5058583;28;20040;-45
2022/12/23 06:42:15;;;;;;;22.92;15.18;;;;;;;10.28;100.00;100582.66;5063783;28;20024;-50
2022/12/23 06:44:40;;;;;;;24.05;15.15;;;;;;;10.30;100.00;100587.81;5055906;28;20399;-48
2022/12/23 06:47:06;;;;;;;21.77;14.18;;;;;;;10.30;100.00;100598.09;5059372;28;20024;-48
2022/12/23 06:49:31;;;;;;;23.10;13.85;;;;;;;10.28;100.00;100604.91;5060008;28;20025;-52
2022/12/23 06:51:56;;;;;;;25.10;13.25;;;;;;;10.29;100.00;100602.38;5062925;28;20160;-43
2022/12/23 06:54:22;;;;;;;19.83;13.65;;;;;;;10.27;100.00;100609.19;5061903;28;20119;-50
2022/12/23 06:56:47;;;;;;;19.98;12.60;;;;;;;10.23;100.00;100612.50;5063294;28;20056;-48
2022/12/23 06:59:13;;;;;;;19.67;12.35;;;;;;;10.26;100.00;100628.00;5063282;28;20393;-46
2022/12/23 07:01:39;;;;;;;17.83;12.32;;;;;;;10.21;100.00;100625.28;5061967;28;20035;-49
2022/12/23 07:04:05;;;;;;;19.02;12.45;;;;;;;10.22;100.00;100644.13;5064344;28;20029;-44
2022/12/23 07:06:30;;;;;;;23.98;12.82;;;;;;;10.23;100.00;100653.63;5064026;28;20178;-46
2022/12/23 07:08:56;;;;;;;18.77;12.50;;;;;;;10.24;100.00;100665.63;5061396;28;20111;-50
2022/12/23 07:11:21;;;;;;;23.73;13.55;;;;;;;10.26;100.00;100665.69;5064538;28;20029;-48
2022/12/23 07:13:46;;;;;;;23.80;13.73;;;;;;;10.28;100.00;100657.19;5060895;28;20029;-52
2022/12/23 07:16:12;;;;;;;19.85;14.18;;;;;;;10.24;100.00;100659.63;5059923;28;20028;-50
2022/12/23 07:18:37;;;;;;;22.00;14.00;;;;;;;10.29;100.00;100658.03;5059888;28;20739;-45
2022/12/23 07:21:03;;;;;;;23.75;14.88;;;;;;;10.25;100.00;100640.81;5058817;28;20024;-49
2022/12/23 07:23:29;;;;;;;25.00;15.85;;;;;;;10.25;100.00;100630.53;5065073;28;20024;-51
2022/12/23 07:25:55;;;;;;;27.73;16.20;;;;;;;10.27;100.00;100640.03;5061796;28;20552;-49
2022/12/23 07:28:24;;;;;;;28.92;16.65;;;;;;;10.27;100.00;100626.31;5062271;28;20032;-52
2022/12/23 07:30:49;;;;;;;26.75;17.77;;;;;;;10.27;100.00;100634.03;5060142;28;20598;-49
2022/12/23 07:33:15;;;;;;;30.08;15.90;;;;;;;10.28;100.00;100636.63;5059386;28;20027;-49
2022/12/23 07:35:41;;;;;;;26.17;17.50;;;;;;;10.24;100.00;100623.66;5068741;28;20024;-43
2022/12/23 07:38:07;;;;;;;27.48;17.23;;;;;;;10.23;100.00;100630.50;5058929;28;20501;-39
2022/12/23 07:40:32;;;;;;;34.05;19.23;;;;;;;10.27;100.00;100621.16;5067609;28;20448;-50
2022/12/23 07:42:58;;;;;;;33.95;20.13;;;;;;;10.27;100.00;100621.16;5072325;28;20028;-51
2022/12/23 07:45:25;;;;;;;32.05;20.38;;;;;;;10.26;100.00;100632.28;5071092;28;20024;-51
2022/12/23 07:47:55;;;;;;;34.70;19.77;;;;;;;10.28;100.00;100630.63;5068808;28;20028;-45
2022/12/23 07:50:21;;;;;;;37.03;21.25;;;;;;;10.25;100.00;100622.81;5063345;28;20036;-46
2022/12/23 07:52:46;;;;;;;36.38;20.48;;;;;;;10.29;100.00;100632.34;5070562;28;20021;-51
2022/12/23 07:55:12;;;;;;;32.90;19.80;;;;;;;10.28;100.00;100621.19;5068658;28;20095;-52
2022/12/23 07:57:38;;;;;;;36.25;20.50;;;;;;;10.28;100.00;100622.91;5066458;28;20079;-46
2022/12/23 08:00:06;;;;;;;33.75;21.38;;;;;;;10.26;100.00;100622.00;5071861;28;20043;-52
2022/12/23 08:02:31;;;;;;;34.22;21.88;;;;;;;10.27;100.00;100622.03;5066666;28;20432;-49
2022/12/23 08:04:56;;;;;;;34.08;22.08;;;;;;;10.27;100.00;100628.88;5063687;28;20025;-46
2022/12/23 08:07:22;;;;;;;35.10;22.75;;;;;;;10.29;100.00;100622.06;5066283;28;20113;-48
2022/12/23 08:09:47;;;;;;;37.90;23.23;;;;;;;10.29;100.00;100619.50;5064299;28;20076;-48
2022/12/23 08:12:12;;;;;;;41.08;24.50;;;;;;;10.26;100.00;100625.44;5075989;28;20407;-49
2022/12/23 08:14:38;;;;;;;39.95;24.15;;;;;;;10.31;100.00;100622.97;5076287;28;20055;-44
2022/12/23 08:17:03;;;;;;;43.92;26.00;;;;;;;10.30;100.00;100616.09;5078410;28;20085;-45
2022/12/23 08:19:29;;;;;;;41.08;27.20;;;;;;;10.33;100.00;100608.47;5065405;28;20084;-47
2022/12/23 08:21:54;;;;;;;40.85;27.30;;;;;;;10.28;100.00;100594.63;5060129;28;20036;-51
2022/12/23 08:24:19;;;;;;;51.50;30.88;;;;;;;10.29;100.00;100601.50;5061361;28;20370;-46
2022/12/23 08:26:44;;;;;;;48.40;29.17;;;;;;;10.30;100.00;100616.09;5064234;28;20143;-46
2022/12/23 08:29:10;;;;;;;47.40;30.02;;;;;;;10.27;100.00;100604.06;5065179;28;20064;-48
2022/12/23 08:31:35;;;;;;;52.47;30.60;;;;;;;10.26;100.00;100594.59;5066541;28;20107;-45
2022/12/23 08:34:01;;;;;;;53.90;30.83;;;;;;;10.29;100.00;100601.50;5066289;28;20063;-49
2022/12/23 08:36:32;;;;;;;48.85;29.88;;;;;;;10.30;100.00;100613.53;5062101;28;20035;-49
2022/12/23 08:39:00;;;;;;;51.33;29.95;;;;;;;10.26;100.00;100612.59;5065003;28;20033;-47
2022/12/23 08:41:29;;;;;;;50.63;29.75;;;;;;;10.27;100.00;100604.06;5067607;28;20028;-46
2022/12/23 08:43:56;;;;;;;49.45;30.30;;;;;;;10.27;100.00;100616.91;5077960;28;20511;-50
2022/12/23 08:46:22;;;;;;;50.80;30.08;;;;;;;10.25;100.00;100602.25;5077379;28;20034;-46
2022/12/23 08:48:47;;;;;;;52.97;30.52;;;;;;;10.27;100.00;100603.19;5078069;28;20056;-48
2022/12/23 08:51:15;;;;;;;49.10;29.20;;;;;;;10.26;100.00;100597.19;5076634;28;20122;-47
2022/12/23 08:53:41;;;;;;;46.75;29.02;;;;;;;10.24;100.00;100600.53;5082831;28;20444;-50
2022/12/23 08:56:12;;;;;;;50.83;29.30;;;;;;;10.29;100.00;100580.94;5083256;28;20036;-44
2022/12/23 08:58:40;;;;;;;54.38;29.65;;;;;;;10.27;100.00;100569.78;5075411;28;20115;-47
2022/12/23 09:01:08;;;;;;;50.28;27.92;;;;;;;10.28;100.00;100568.94;5075656;28;20025;-50
2022/12/23 09:03:34;;;;;;;47.20;27.70;;;;;;;10.26;100.00;100568.91;5085182;28;20062;-50
2022/12/23 09:06:09;;;;;;;45.17;26.70;;;;;;;10.31;100.00;100580.16;5072652;28;20389;-50
2022/12/23 09:08:35;;;;;;;46.78;26.00;;;;;;;10.27;100.00;100573.22;5074787;28;20032;-48
2022/12/23 09:11:00;;;;;;;43.30;26.20;;;;;;;10.27;100.00;100569.78;5074666;28;20021;-49
2022/12/23 09:13:26;;;;;;;41.40;24.10;;;;;;;10.26;100.00;100562.91;5082190;28;20388;-46
2022/12/23 09:15:51;;;;;;;42.20;24.00;;;;;;;10.27;100.00;100562.94;5072667;28;20029;-48
2022/12/23 09:18:17;;;;;;;39.00;22.95;;;;;;;10.27;100.00;100565.50;5083322;28;20044;-50
2022/12/23 09:20:42;;;;;;;44.33;24.45;;;;;;;10.28;100.00;100558.66;5079482;28;20028;-50
2022/12/23 09:23:07;;;;;;;38.22;22.65;;;;;;;10.24;100.00;100552.56;5082977;28;20016;-49
2022/12/23 09:25:35;;;;;;;37.90;21.40;;;;;;;10.26;100.00;100550.06;5066716;28;20028;-49
2022/12/23 09:28:00;;;;;;;37.22;20.60;;;;;;;10.26;100.00;100544.91;5062111;28;20481;-46
2022/12/23 09:30:26;;;;;;;38.65;19.77;;;;;;;10.24;100.00;100544.00;5066286;28;20034;-50
2022/12/23 09:32:51;;;;;;;34.15;20.08;;;;;;;10.24;100.00;100534.56;5075678;28;20062;-48
2022/12/23 09:35:17;;;;;;;35.25;19.38;;;;;;;10.22;100.00;100538.78;5079519;28;20032;-50
2022/12/23 09:37:42;;;;;;;33.28;19.40;;;;;;;10.26;100.00;100535.50;5082713;28;20365;-49
2022/12/23 09:40:19;;;;;;;32.08;18.50;;;;;;;10.30;100.00;100531.28;5074484;28;20541;-47
2022/12/23 09:43:13;;;;;;;30.27;18.83;;;;;;;10.28;100.00;100533.81;5078166;28;20042;-49
2022/12/23 09:46:30;;;;;;;32.03;18.38;;;;;;;10.32;100.00;100521.94;5078549;28;20056;-50
2022/12/23 09:49:10;;;;;;;27.55;16.90;;;;;;;10.29;100.00;100521.84;5071426;28;20042;-50
2022/12/23 09:51:36;;;;;;;28.88;15.82;;;;;;;10.25;100.00;100518.31;5072417;28;20020;-46
2022/12/23 09:54:18;;;;;;;28.15;15.93;;;;;;;10.31;100.00;100507.31;5062671;28;20496;-46
2022/12/23 09:56:52;;;;;;;32.70;14.95;;;;;;;10.26;100.00;100506.38;5071638;28;20032;-47
2022/12/23 09:59:25;;;;;;;27.55;15.02;;;;;;;10.26;100.00;100507.25;5070231;28;20388;-50
2022/12/23 10:01:57;;;;;;;29.42;15.38;;;;;;;10.26;100.00;100501.22;5078879;28;20373;-45
2022/12/23 10:04:32;;;;;;;24.00;14.25;;;;;;;10.23;100.00;100509.72;5068870;28;20078;-49
2022/12/23 10:07:00;;;;;;;32.00;15.73;;;;;;;10.26;100.00;100514.09;5074397;28;20059;-43
2022/12/23 10:09:27;;;;;;;24.52;14.25;;;;;;;10.21;100.00;100517.38;5070651;28;20039;-51
2022/12/23 10:11:53;;;;;;;31.10;15.05;;;;;;;10.21;100.00;100517.38;5070173;28;20032;-49
2022/12/23 10:14:29;;;;;;;23.88;13.63;;;;;;;10.23;100.00;100504.56;5064277;28;20048;-48
2022/12/23 10:16:58;;;;;;;24.98;13.82;;;;;;;10.21;100.00;100489.09;5069877;28;20055;-50
2022/12/23 10:19:26;;;;;;;;;;;;;;;10.34;100.00;100484.28;5060604;28;20063;-45
2022/12/23 10:22:03;;;;;;;28.73;12.68;;;;;;;10.25;100.00;100481.47;5065354;28;19912;-47
2022/12/23 10:24:39;;;;;;;22.20;12.20;;;;;;;10.24;100.00;100482.31;5058730;28;20051;-41
2022/12/23 10:27:17;;;;;;;26.63;12.25;;;;;;;10.23;100.00;100473.75;5059534;28;20036;-43
2022/12/23 10:29:42;;;;;;;18.60;11.52;;;;;;;10.20;100.00;100471.09;5056626;28;20502;-43
2022/12/23 10:32:20;;;;;;;21.95;11.27;;;;;;;10.24;100.00;100467.78;5059129;28;20163;-40
2022/12/23 10:34:51;;;;;;;23.92;11.00;;;;;;;10.24;100.00;100454.06;5058237;28;20032;-50
2022/12/23 10:37:32;;;;;;;22.80;10.50;;;;;;;10.20;100.00;100456.53;5063294;28;20073;-43
2022/12/23 10:40:16;;;;;;;19.40;10.90;;;;;;;10.25;100.00;100459.22;5066047;28;20057;-45
2022/12/23 10:43:00;;;;;;;17.13;10.95;;;;;;;10.24;100.00;100452.34;5065916;28;20028;-49
2022/12/23 10:46:16;;;;;;;21.27;11.38;;;;;;;10.29;100.00;100437.03;5059449;28;20033;-45
2022/12/23 10:48:54;;;;;;;22.33;11.40;;;;;;;10.27;100.00;100433.59;5046268;28;20501;-41
2022/12/23 10:51:27;;;;;;;21.60;11.13;;;;;;;10.26;100.00;100437.00;5057089;28;20024;-49
2022/12/23 10:53:57;;;;;;;21.80;11.48;;;;;;;10.26;100.00;100419.00;5062753;28;20029;-50
2022/12/23 10:56:23;;;;;;;22.92;11.30;;;;;;;10.24;100.00;100416.38;5060623;28;20028;-47
2022/12/23 10:58:55;;;;;;;22.08;11.77;;;;;;;10.24;100.00;100411.25;5058556;28;23194;-40
2022/12/23 11:01:21;;;;;;;21.35;11.38;;;;;;;10.23;100.00;100396.66;5062521;28;20029;-42
2022/12/23 11:04:10;;;;;;;18.77;10.90;;;;;;;10.28;100.00;100395.06;5062990;28;20397;-52
2022/12/23 11:06:47;;;;;;;22.02;10.75;;;;;;;10.30;100.00;100393.38;5058362;28;20029;-45
2022/12/23 11:09:22;;;;;;;18.33;10.05;;;;;;;10.29;100.00;100393.34;5058691;28;20033;-51
2022/12/23 11:11:59;;;;;;;19.30;10.20;;;;;;;10.27;100.00;100377.91;5061947;28;20064;-50
2022/12/23 11:14:55;;;;;;;15.88;9.75;;;;;;;10.32;100.00;100370.31;5060992;28;20129;-46
2022/12/23 11:17:29;;;;;;;16.15;9.75;;;;;;;10.28;100.00;100376.22;5055657;28;20052;-49
2022/12/23 11:20:15;;;;;;;17.90;9.70;;;;;;;10.30;100.00;100383.09;5063061;28;20090;-52
2022/12/23 11:22:52;;;;;;;20.73;9.50;;;;;;;10.31;100.00;100379.69;5061866;28;20074;-54
2022/12/23 11:25:30;;;;;;;16.90;9.35;;;;;;;10.30;100.00;100372.81;5059291;28;20029;-51
2022/12/23 11:28:01;;;;;;;14.88;9.15;;;;;;;10.27;100.00;100369.34;5057355;28;20146;-51
2022/12/23 11:30:28;;;;;;;19.80;9.40;;;;;;;10.31;100.00;100368.53;5063894;28;20158;-53
2022/12/23 11:32:54;;;;;;;19.73;9.57;;;;;;;10.31;100.00;100350.56;5066420;28;20483;-53
2022/12/23 11:35:29;;;;;;;16.40;8.02;;;;;;;10.30;100.00;100351.41;5065961;28;20235;-49